createdAt,value
2022-12-03T00:00:57.587Z,95431.09
2022-12-03T00:01:59.176Z,95431.09
2022-12-03T00:03:01.008Z,95432.59
2022-12-03T00:04:02.915Z,95425.50
2022-12-03T00:05:05.249Z,95428.53
2022-12-03T00:06:06.988Z,95434.09
2022-12-03T00:07:08.505Z,95428.53
2022-12-03T00:08:10.208Z,95438.41
2022-12-03T00:09:11.846Z,95434.84
2022-12-03T00:10:13.405Z,95439.66
2022-12-03T00:11:14.947Z,95443.97
2022-12-03T00:12:16.500Z,95443.97
2022-12-03T00:13:18.060Z,95443.97
2022-12-03T00:14:19.584Z,95443.72
2022-12-03T00:15:21.142Z,95447.28
2022-12-03T00:16:22.807Z,95446.78
2022-12-03T00:17:24.412Z,95443.97
2022-12-03T00:18:25.971Z,95449.56
2022-12-03T00:19:27.532Z,95454.59
2022-12-03T00:20:29.126Z,95448.28
2022-12-03T00:21:30.653Z,95455.34
2022-12-03T00:22:32.346Z,95453.84
2022-12-03T00:23:38.535Z,95453.84
2022-12-03T00:24:43.218Z,95458.88
2022-12-03T00:25:44.738Z,95456.84
2022-12-03T00:26:46.288Z,95456.84
2022-12-03T00:27:47.825Z,95451.28
2022-12-03T00:28:49.421Z,95452.03
2022-12-03T00:29:50.947Z,95452.03
2022-12-03T00:30:54.227Z,95450.03
2022-12-03T00:31:55.867Z,95447.25
2022-12-03T00:32:57.875Z,95452.81
2022-12-03T00:33:59.465Z,95451.28
2022-12-03T00:35:01.017Z,95456.84
2022-12-03T00:36:02.650Z,95450.03
2022-12-03T00:37:04.177Z,95447.25
2022-12-03T00:38:05.690Z,95458.38
2022-12-03T00:39:07.227Z,95458.38
2022-12-03T00:40:09.490Z,95461.19
2022-12-03T00:41:11.111Z,95454.06
2022-12-03T00:42:12.683Z,95455.34
2022-12-03T00:43:14.256Z,95458.38
2022-12-03T00:44:15.892Z,95458.38
2022-12-03T00:45:17.530Z,95456.34
2022-12-03T00:46:21.628Z,95462.16
2022-12-03T00:47:23.476Z,95461.41
2022-12-03T00:48:25.024Z,95458.38
2022-12-03T00:49:26.619Z,95458.38
2022-12-03T00:50:28.300Z,95469.53
2022-12-03T00:51:29.993Z,95464.72
2022-12-03T00:52:31.548Z,95469.75
2022-12-03T00:53:33.144Z,95473.31
2022-12-03T00:54:35.923Z,95470.50
2022-12-03T00:55:37.437Z,95470.50
2022-12-03T00:56:39.014Z,95471.25
2022-12-03T00:57:40.555Z,95472.81
2022-12-03T00:58:42.102Z,95479.63
2022-12-03T00:59:43.632Z,95478.13
2022-12-03T01:00:45.190Z,95480.41
2022-12-03T01:01:46.861Z,95479.63
2022-12-03T01:02:48.472Z,95479.63
2022-12-03T01:03:50.058Z,95479.63
2022-12-03T01:04:52.031Z,95474.84
2022-12-03T01:05:54.188Z,95487.50
2022-12-03T01:06:55.946Z,95479.88
2022-12-03T01:07:57.551Z,95487.50
2022-12-03T01:08:59.235Z,95481.38
2022-12-03T01:10:00.807Z,95481.38
2022-12-03T01:11:02.376Z,95483.41
2022-12-03T01:12:03.945Z,95484.16
2022-12-03T01:13:05.585Z,95491.03
2022-12-03T01:15:13.409Z,95495.31
2022-12-03T01:16:15.067Z,95494.56
2022-12-03T01:17:16.656Z,95493.81
2022-12-03T01:18:18.173Z,95493.81
2022-12-03T01:19:19.953Z,95493.56
2022-12-03T01:20:21.480Z,95487.22
2022-12-03T01:21:22.999Z,95499.13
2022-12-03T01:24:28.116Z,95499.13
2022-12-03T01:25:29.709Z,95499.91
2022-12-03T01:26:31.335Z,95491.56
2022-12-03T01:27:32.916Z,95493.56
2022-12-03T01:28:34.600Z,95494.34
2022-12-03T01:29:36.160Z,95497.63
2022-12-03T01:30:57.662Z,95498.16
2022-12-03T01:32:17.328Z,95492.31
2022-12-03T01:33:18.878Z,95496.34
2022-12-03T01:34:20.415Z,95495.88
2022-12-03T01:35:22.004Z,95488.78
2022-12-03T01:36:23.643Z,95492.34
2022-12-03T01:37:26.707Z,95488.78
2022-12-03T01:38:28.268Z,95494.38
2022-12-03T01:39:29.931Z,95492.84
2022-12-03T01:40:31.533Z,95497.69
2022-12-03T01:41:35.553Z,95492.34
2022-12-03T01:42:40.968Z,95488.56
2022-12-03T01:43:43.515Z,95490.81
2022-12-03T01:44:45.956Z,95485.25
2022-12-03T01:45:47.643Z,95489.81
2022-12-03T01:46:51.160Z,95489.31
2022-12-03T01:47:52.831Z,95490.06
2022-12-03T01:48:56.137Z,95493.91
2022-12-03T01:50:11.820Z,95497.22
2022-12-03T01:51:14.625Z,95493.63
2022-12-03T01:52:19.092Z,95487.28
2022-12-03T01:53:20.736Z,95492.09
2022-12-03T01:54:36.466Z,95492.38
2022-12-03T01:55:38.228Z,95488.56
2022-12-03T01:56:39.772Z,95486.53
2022-12-03T01:57:43.429Z,95492.59
2022-12-03T01:58:46.402Z,95480.22
2022-12-03T01:59:48.668Z,95481.47
2022-12-03T02:00:50.200Z,95489.31
2022-12-03T02:01:51.861Z,95487.28
2022-12-03T02:03:00.688Z,95485.53
2022-12-03T02:04:02.395Z,95485.78
2022-12-03T02:05:15.302Z,95489.81
2022-12-03T02:06:20.836Z,95495.41
2022-12-03T02:07:34.165Z,95493.13
2022-12-03T02:08:37.684Z,95492.09
2022-12-03T02:09:39.177Z,95485.78
2022-12-03T02:10:40.774Z,95490.56
2022-12-03T02:11:49.664Z,95493.91
2022-12-03T02:12:57.840Z,95481.25
2022-12-03T02:14:03.286Z,95485.78
2022-12-03T02:15:09.897Z,95488.84
2022-12-03T02:16:11.569Z,95493.91
2022-12-03T02:17:13.501Z,95488.06
2022-12-03T02:18:15.095Z,95482.50
2022-12-03T02:19:30.323Z,95492.66
2022-12-03T02:20:51.053Z,95489.34
2022-12-03T02:22:05.019Z,95492.13
2022-12-03T02:23:20.772Z,95481.25
2022-12-03T02:24:31.161Z,95485.28
2022-12-03T02:25:34.713Z,95488.31
2022-12-03T02:26:36.285Z,95486.06
2022-12-03T02:27:38.233Z,95481.25
2022-12-03T02:28:40.133Z,95479.72
2022-12-03T02:29:41.714Z,95483.28
2022-12-03T02:30:43.373Z,95479.22
2022-12-03T02:31:45.033Z,95483.50
2022-12-03T02:32:48.374Z,95480.72
2022-12-03T02:33:50.521Z,95479.97
2022-12-03T02:34:52.578Z,95482.00
2022-12-03T02:35:56.897Z,95474.91
2022-12-03T02:37:01.417Z,95474.13
2022-12-03T02:38:12.235Z,95476.69
2022-12-03T02:39:13.817Z,95475.66
2022-12-03T02:40:20.353Z,95478.97
2022-12-03T02:41:40.711Z,95477.19
2022-12-03T02:42:43.021Z,95484.25
2022-12-03T02:43:44.549Z,95489.81
2022-12-03T02:44:46.232Z,95487.56
2022-12-03T02:45:52.557Z,95489.34
2022-12-03T02:46:54.216Z,95486.06
2022-12-03T02:48:18.173Z,95488.38
2022-12-03T02:49:19.732Z,95484.25
2022-12-03T02:50:29.297Z,95487.09
2022-12-03T02:51:30.997Z,95483.50
2022-12-03T02:52:32.662Z,95479.97
2022-12-03T02:53:53.965Z,95480.75
2022-12-03T02:54:55.942Z,95477.69
2022-12-03T02:56:00.151Z,95482.50
2022-12-03T02:57:02.149Z,95477.19
2022-12-03T02:58:05.174Z,95478.69
2022-12-03T02:59:06.806Z,95485.00
2022-12-03T03:00:10.589Z,95484.25
2022-12-03T03:01:12.970Z,95477.94
2022-12-03T03:02:14.922Z,95487.28
2022-12-03T03:03:17.935Z,95482.75
2022-12-03T03:04:19.611Z,95488.84
2022-12-03T03:05:23.420Z,95478.69
2022-12-03T03:06:25.484Z,95478.69
2022-12-03T03:07:27.117Z,95479.97
2022-12-03T03:08:29.429Z,95479.72
2022-12-03T03:09:31.328Z,95485.28
2022-12-03T03:10:35.088Z,95486.81
2022-12-03T03:11:36.779Z,95489.06
2022-12-03T03:12:39.523Z,95486.81
2022-12-03T03:13:41.323Z,95481.25
2022-12-03T03:14:42.924Z,95476.91
2022-12-03T03:15:45.123Z,95483.28
2022-12-03T03:16:55.775Z,95480.25
2022-12-03T03:17:57.453Z,95482.50
2022-12-03T03:18:59.031Z,95490.34
2022-12-03T03:20:01.091Z,95485.53
2022-12-03T03:21:03.899Z,95471.88
2022-12-03T03:22:05.517Z,95475.66
2022-12-03T03:23:17.732Z,95471.13
2022-12-03T03:24:20.747Z,95474.63
2022-12-03T03:25:24.696Z,95470.31
2022-12-03T03:26:26.579Z,95469.34
2022-12-03T03:27:28.892Z,95474.38
2022-12-03T03:28:31.244Z,95463.78
2022-12-03T03:29:33.711Z,95469.84
2022-12-03T03:30:36.002Z,95472.63
2022-12-03T03:31:38.942Z,95468.56
2022-12-03T03:32:42.627Z,95473.38
2022-12-03T03:33:48.052Z,95472.88
2022-12-03T03:34:49.873Z,95474.91
2022-12-03T03:35:51.643Z,95476.41
2022-12-03T03:36:53.342Z,95475.66
2022-12-03T03:37:56.907Z,95484.25
2022-12-03T03:38:58.713Z,95480.22
2022-12-03T03:40:00.260Z,95475.88
2022-12-03T03:41:05.156Z,95482.75
2022-12-03T03:42:06.764Z,95484.50
2022-12-03T03:43:08.514Z,95476.63
2022-12-03T03:44:10.464Z,95477.19
2022-12-03T03:45:12.585Z,95478.69
2022-12-03T03:46:15.185Z,95485.78
2022-12-03T03:47:18.209Z,95487.28
2022-12-03T03:48:21.086Z,95488.03
2022-12-03T03:49:22.995Z,95488.78
2022-12-03T03:50:25.192Z,95488.78
2022-12-03T03:51:26.911Z,95484.72
2022-12-03T03:52:28.840Z,95491.84
2022-12-03T03:53:30.985Z,95486.25
2022-12-03T03:54:32.971Z,95489.53
2022-12-03T03:55:34.798Z,95490.31
2022-12-03T03:56:36.994Z,95490.31
2022-12-03T03:57:39.346Z,95484.72
2022-12-03T03:58:41.386Z,95484.72
2022-12-03T03:59:43.010Z,95486.00
2022-12-03T04:00:47.428Z,95484.50
2022-12-03T04:01:49.053Z,95483.47
2022-12-03T04:02:52.368Z,95483.97
2022-12-03T04:03:54.890Z,95483.47
2022-12-03T04:04:56.489Z,95484.72
2022-12-03T04:05:58.326Z,95488.25
2022-12-03T04:07:00.109Z,95489.03
2022-12-03T04:08:01.776Z,95493.34
2022-12-03T04:09:03.422Z,95491.84
2022-12-03T04:10:25.545Z,95498.44
2022-12-03T04:11:45.408Z,95497.63
2022-12-03T04:13:57.160Z,95506.00
2022-12-03T04:14:59.001Z,95508.78
2022-12-03T04:16:00.636Z,95512.59
2022-12-03T04:17:02.255Z,95511.84
2022-12-03T04:18:26.859Z,95513.34
2022-12-03T04:19:28.385Z,95515.63
2022-12-03T04:20:29.957Z,95519.69
2022-12-03T04:21:49.953Z,95518.91
2022-12-03T04:22:51.474Z,95521.22
2022-12-03T04:23:53.031Z,95509.81
2022-12-03T04:25:14.572Z,95505.75
2022-12-03T04:26:34.596Z,95503.97
2022-12-03T04:27:54.552Z,95513.06
2022-12-03T04:28:56.233Z,95517.38
2022-12-03T04:30:59.320Z,95522.72
2022-12-03T04:32:19.845Z,95521.22
2022-12-03T04:33:40.327Z,95524.22
2022-12-03T04:35:00.177Z,95522.72
2022-12-03T04:37:04.235Z,95519.69
2022-12-03T04:38:05.751Z,95520.94
2022-12-03T04:39:07.285Z,95520.19
2022-12-03T04:40:29.080Z,95522.22
2022-12-03T04:41:30.722Z,95522.50
2022-12-03T04:42:32.251Z,95529.31
2022-12-03T04:43:35.055Z,95525.28
2022-12-03T04:44:37.442Z,95522.72
2022-12-03T04:45:39.009Z,95522.72
2022-12-03T04:46:40.795Z,95522.72
2022-12-03T04:47:42.380Z,95520.44
2022-12-03T04:48:43.880Z,95524.22
2022-12-03T04:50:48.218Z,95514.13
2022-12-03T04:51:49.782Z,95518.16
2022-12-03T04:52:51.333Z,95516.66
2022-12-03T04:53:52.883Z,95517.41
2022-12-03T04:54:54.619Z,95510.34
2022-12-03T04:55:56.316Z,95523.00
2022-12-03T04:56:57.938Z,95511.09
2022-12-03T04:57:59.599Z,95512.59
2022-12-03T04:59:01.167Z,95512.59
2022-12-03T05:00:04.223Z,95517.41
2022-12-03T05:01:05.780Z,95519.44
2022-12-03T05:02:08.016Z,95513.34
2022-12-03T05:03:09.737Z,95524.50
2022-12-03T05:04:12.189Z,95516.66
2022-12-03T05:05:14.036Z,95514.63
2022-12-03T05:06:15.550Z,95523.75
2022-12-03T05:07:17.120Z,95523.53
2022-12-03T05:08:18.722Z,95523.00
2022-12-03T05:09:20.379Z,95529.31
2022-12-03T05:10:21.980Z,95523.75
2022-12-03T05:11:23.555Z,95522.22
2022-12-03T05:12:25.189Z,95522.50
2022-12-03T05:13:26.780Z,95522.50
2022-12-03T05:14:28.353Z,95525.28
2022-12-03T05:15:29.907Z,95525.28
2022-12-03T05:16:31.674Z,95528.06
2022-12-03T05:17:33.432Z,95529.09
2022-12-03T05:18:35.075Z,95522.22
2022-12-03T05:19:55.255Z,95527.06
2022-12-03T05:20:56.806Z,95531.88
2022-12-03T05:21:58.365Z,95529.84
2022-12-03T05:22:59.945Z,95531.13
2022-12-03T05:24:02.142Z,95529.09
2022-12-03T05:25:04.244Z,95526.31
2022-12-03T05:26:05.849Z,95531.13
2022-12-03T05:27:07.413Z,95526.31
2022-12-03T05:28:09.088Z,95530.38
2022-12-03T05:29:10.673Z,95531.88
2022-12-03T05:30:12.507Z,95537.44
2022-12-03T05:31:14.231Z,95538.72
2022-12-03T05:32:15.853Z,95534.66
2022-12-03T05:33:17.575Z,95541.22
2022-12-03T05:34:19.097Z,95538.94
2022-12-03T05:35:20.676Z,95534.88
2022-12-03T05:36:22.396Z,95533.38
2022-12-03T05:37:23.941Z,95530.38
2022-12-03T05:38:25.497Z,95538.19
2022-12-03T05:39:27.049Z,95537.44
2022-12-03T05:40:28.711Z,95543.03
2022-12-03T05:41:48.511Z,95543.03
2022-12-03T05:43:01.309Z,95543.03
2022-12-03T05:44:02.974Z,95548.59
2022-12-03T05:45:04.966Z,95541.53
2022-12-03T05:46:06.587Z,95545.81
2022-12-03T05:47:08.186Z,95547.84
2022-12-03T05:48:12.664Z,95545.56
2022-12-03T05:49:14.183Z,95545.81
2022-12-03T05:50:15.841Z,95545.81
2022-12-03T05:51:17.427Z,95547.09
2022-12-03T05:52:19.015Z,95545.56
2022-12-03T05:53:20.559Z,95547.09
2022-12-03T05:54:22.089Z,95549.88
2022-12-03T05:55:24.112Z,95543.53
2022-12-03T05:56:25.753Z,95544.53
2022-12-03T05:57:27.324Z,95548.06
2022-12-03T05:58:28.843Z,95551.13
2022-12-03T05:59:30.393Z,95555.69
2022-12-03T06:00:39.087Z,95557.19
2022-12-03T06:01:43.565Z,95558.72
2022-12-03T06:02:45.725Z,95563.00
2022-12-03T06:03:47.440Z,95558.72
2022-12-03T06:04:49.250Z,95560.72
2022-12-03T06:05:50.996Z,95567.06
2022-12-03T06:06:52.501Z,95559.97
2022-12-03T06:07:54.133Z,95561.50
2022-12-03T06:08:55.812Z,95564.28
2022-12-03T06:09:57.393Z,95565.03
2022-12-03T06:10:58.968Z,95570.91
2022-12-03T06:12:00.887Z,95566.81
2022-12-03T06:13:03.213Z,95566.81
2022-12-03T06:14:04.734Z,95566.81
2022-12-03T06:15:07.437Z,95572.41
2022-12-03T06:16:09.024Z,95567.06
2022-12-03T06:17:10.652Z,95569.59
2022-12-03T06:18:12.210Z,95569.59
2022-12-03T06:19:13.874Z,95573.91
2022-12-03T06:20:18.539Z,95568.31
2022-12-03T06:21:20.121Z,95567.56
2022-12-03T06:22:21.645Z,95566.81
2022-12-03T06:23:23.199Z,95571.13
2022-12-03T06:24:24.784Z,95567.56
2022-12-03T06:25:26.613Z,95572.66
2022-12-03T06:26:28.250Z,95573.91
2022-12-03T06:27:29.796Z,95574.66
2022-12-03T06:28:31.344Z,95579.47
2022-12-03T06:29:32.935Z,95572.41
2022-12-03T06:30:35.829Z,95573.16
2022-12-03T06:31:37.468Z,95572.41
2022-12-03T06:32:39.105Z,95577.97
2022-12-03T06:33:40.832Z,95578.22
2022-12-03T06:34:42.377Z,95571.66
2022-12-03T06:35:43.936Z,95573.91
2022-12-03T06:36:46.873Z,95579.47
2022-12-03T06:37:48.407Z,95574.66
2022-12-03T06:38:49.969Z,95580.22
2022-12-03T06:39:51.525Z,95575.44
2022-12-03T06:40:53.151Z,95581.00
2022-12-03T06:41:54.685Z,95569.88
2022-12-03T06:42:56.358Z,95581.00
2022-12-03T06:43:57.925Z,95575.66
2022-12-03T06:44:59.453Z,95576.19
2022-12-03T06:46:01.092Z,95573.91
2022-12-03T06:48:04.467Z,95569.88
2022-12-03T06:49:06.124Z,95569.88
2022-12-03T06:50:08.902Z,95572.66
2022-12-03T06:51:10.461Z,95572.41
2022-12-03T06:52:12.060Z,95571.88
2022-12-03T06:53:13.623Z,95573.16
2022-12-03T06:55:16.840Z,95575.44
2022-12-03T06:56:22.067Z,95573.63
2022-12-03T06:57:24.120Z,95573.63
2022-12-03T06:58:25.640Z,95565.78
2022-12-03T06:59:27.298Z,95574.16
2022-12-03T07:00:28.932Z,95576.19
2022-12-03T07:01:30.620Z,95572.41
2022-12-03T07:02:32.232Z,95575.44
2022-12-03T07:03:33.887Z,95573.91
2022-12-03T07:04:35.413Z,95576.69
2022-12-03T07:05:37.335Z,95580.75
2022-12-03T07:06:38.940Z,95585.06
2022-12-03T07:07:40.565Z,95583.78
2022-12-03T07:08:42.178Z,95588.09
2022-12-03T07:10:45.222Z,95586.59
2022-12-03T07:11:46.812Z,95586.81
2022-12-03T07:13:49.793Z,95588.59
2022-12-03T07:14:51.996Z,95596.19
2022-12-03T07:15:53.937Z,95591.38
2022-12-03T07:16:55.472Z,95590.63
2022-12-03T07:17:57.155Z,95590.63
2022-12-03T07:18:58.641Z,95600.25
2022-12-03T07:20:00.249Z,95601.78
2022-12-03T07:21:01.817Z,95598.22
2022-12-03T07:22:03.353Z,95603.31
2022-12-03T07:23:05.075Z,95600.75
2022-12-03T07:25:08.903Z,95604.53
2022-12-03T07:26:10.657Z,95595.66
2022-12-03T07:27:12.177Z,95595.44
2022-12-03T07:28:13.689Z,95605.28
2022-12-03T07:29:15.225Z,95606.81
2022-12-03T07:30:17.016Z,95603.78
2022-12-03T07:31:18.791Z,95594.91
2022-12-03T07:32:20.365Z,95606.81
2022-12-03T07:33:22.131Z,95597.47
2022-12-03T07:34:23.704Z,95599.72
2022-12-03T07:35:25.247Z,95608.09
2022-12-03T07:36:26.809Z,95612.38
2022-12-03T07:37:28.450Z,95605.28
2022-12-03T07:38:29.986Z,95610.88
2022-12-03T07:39:31.496Z,95612.38
2022-12-03T07:40:33.042Z,95617.94
2022-12-03T07:41:34.564Z,95606.81
2022-12-03T07:42:36.131Z,95615.41
2022-12-03T07:43:37.647Z,95605.03
2022-12-03T07:44:39.160Z,95611.34
2022-12-03T07:45:40.705Z,95611.09
2022-12-03T07:46:42.940Z,95614.66
2022-12-03T07:47:44.581Z,95614.66
2022-12-03T07:48:46.195Z,95614.13
2022-12-03T07:49:47.728Z,95615.41
2022-12-03T07:50:49.320Z,95613.88
2022-12-03T07:51:54.344Z,95619.47
2022-12-03T07:52:56.451Z,95619.72
2022-12-03T07:53:58.015Z,95618.44
2022-12-03T07:54:59.551Z,95615.16
2022-12-03T07:56:01.088Z,95609.56
2022-12-03T07:57:02.664Z,95608.78
2022-12-03T07:58:04.312Z,95612.84
2022-12-03T07:59:05.937Z,95612.84
2022-12-03T08:00:08.102Z,95607.28
2022-12-03T08:01:10.498Z,95615.91
2022-12-03T08:02:13.889Z,95607.00
2022-12-03T08:03:19.772Z,95615.91
2022-12-03T08:04:21.556Z,95610.31
2022-12-03T08:05:23.118Z,95610.31
2022-12-03T08:06:24.698Z,95610.31
2022-12-03T08:07:26.304Z,95614.38
2022-12-03T08:08:27.949Z,95610.31
2022-12-03T08:09:29.607Z,95611.84
2022-12-03T08:10:31.151Z,95611.31
2022-12-03T08:11:33.412Z,95611.84
2022-12-03T08:12:40.680Z,95622.22
2022-12-03T08:13:42.895Z,95617.41
2022-12-03T08:14:44.678Z,95622.97
2022-12-03T08:15:46.644Z,95627.06
2022-12-03T08:16:48.796Z,95611.84
2022-12-03T08:17:56.408Z,95618.44
2022-12-03T08:18:58.018Z,95618.16
2022-12-03T08:19:59.573Z,95617.41
2022-12-03T08:21:01.096Z,95617.41
2022-12-03T08:22:02.689Z,95625.78
2022-12-03T08:23:10.360Z,95619.44
2022-12-03T08:24:13.757Z,95630.81
2022-12-03T08:25:35.571Z,95627.06
2022-12-03T08:26:37.093Z,95627.53
2022-12-03T08:27:38.671Z,95633.09
2022-12-03T08:28:40.229Z,95637.19
2022-12-03T08:29:41.804Z,95630.06
2022-12-03T08:30:44.615Z,95633.59
2022-12-03T08:31:50.086Z,95636.91
2022-12-03T08:32:51.926Z,95630.06
2022-12-03T08:33:59.436Z,95636.91
2022-12-03T08:35:02.073Z,95639.72
2022-12-03T08:36:13.929Z,95640.72
2022-12-03T08:37:18.214Z,95634.13
2022-12-03T08:38:23.362Z,95635.41
2022-12-03T08:39:44.490Z,95637.72
2022-12-03T08:40:47.987Z,95634.88
2022-12-03T08:42:34.911Z,95633.66
2022-12-03T08:43:42.025Z,95642.75
2022-12-03T08:44:43.652Z,95642.75
2022-12-03T08:45:45.523Z,95638.94
2022-12-03T08:46:54.131Z,95635.91
2022-12-03T08:48:01.954Z,95640.72
2022-12-03T08:49:05.407Z,95635.16
2022-12-03T08:50:28.088Z,95634.94
2022-12-03T08:51:29.825Z,95635.63
2022-12-03T08:52:33.349Z,95630.81
2022-12-03T08:53:41.791Z,95632.84
2022-12-03T08:54:46.811Z,95630.59
2022-12-03T08:55:52.982Z,95630.34
2022-12-03T08:56:55.307Z,95633.88
2022-12-03T08:57:56.863Z,95631.88
2022-12-03T08:59:24.303Z,95630.59
2022-12-03T09:00:25.976Z,95622.97
2022-12-03T09:01:32.232Z,95635.41
2022-12-03T09:02:34.732Z,95631.34
2022-12-03T09:03:47.382Z,95632.84
2022-12-03T09:04:48.936Z,95630.06
2022-12-03T09:05:50.491Z,95631.59
2022-12-03T09:06:53.935Z,95634.38
2022-12-03T09:07:55.583Z,95630.06
2022-12-03T09:08:57.130Z,95630.81
2022-12-03T09:09:58.638Z,95634.38
2022-12-03T09:11:01.259Z,95626.03
2022-12-03T09:12:03.451Z,95628.28
2022-12-03T09:13:04.989Z,95629.03
2022-12-03T09:14:06.566Z,95632.09
2022-12-03T09:15:08.640Z,95624.97
2022-12-03T09:16:10.236Z,95626.50
2022-12-03T09:17:11.881Z,95619.66
2022-12-03T09:18:14.698Z,95616.09
2022-12-03T09:19:16.482Z,95631.03
2022-12-03T09:20:18.123Z,95619.88
2022-12-03T09:21:19.662Z,95617.09
2022-12-03T09:22:21.210Z,95617.09
2022-12-03T09:23:23.333Z,95614.31
2022-12-03T09:24:25.027Z,95621.41
2022-12-03T09:25:26.829Z,95621.41
2022-12-03T09:26:28.589Z,95622.91
2022-12-03T09:27:30.180Z,95622.66
2022-12-03T09:28:31.754Z,95627.75
2022-12-03T09:29:33.317Z,95622.91
2022-12-03T09:30:34.854Z,95623.66
2022-12-03T09:31:36.532Z,95620.13
2022-12-03T09:32:38.235Z,95623.66
2022-12-03T09:33:39.763Z,95629.25
2022-12-03T09:34:42.384Z,95623.66
2022-12-03T09:35:43.899Z,95623.16
2022-12-03T09:36:45.498Z,95620.88
2022-12-03T09:37:47.131Z,95628.72
2022-12-03T09:38:48.738Z,95624.44
2022-12-03T09:39:50.276Z,95620.13
2022-12-03T09:40:52.113Z,95617.34
2022-12-03T09:41:55.491Z,95621.63
2022-12-03T09:42:59.814Z,95617.56
2022-12-03T09:44:04.837Z,95610.47
2022-12-03T09:45:10.928Z,95615.84
2022-12-03T09:46:12.938Z,95618.84
2022-12-03T09:47:14.639Z,95614.03
2022-12-03T09:48:19.031Z,95607.69
2022-12-03T09:49:20.637Z,95618.84
2022-12-03T09:50:25.508Z,95615.84
2022-12-03T09:51:32.871Z,95613.03
2022-12-03T09:52:34.911Z,95612.53
2022-12-03T09:53:41.155Z,95611.25
2022-12-03T09:54:47.317Z,95612.00
2022-12-03T09:55:50.083Z,95601.84
2022-12-03T09:56:53.015Z,95609.97
2022-12-03T09:57:56.328Z,95612.25
2022-12-03T09:58:58.396Z,95602.59
2022-12-03T09:59:59.952Z,95597.03
2022-12-03T10:01:01.585Z,95598.53
2022-12-03T10:02:04.431Z,95601.84
2022-12-03T10:03:07.792Z,95601.09
2022-12-03T10:04:09.879Z,95599.81
2022-12-03T10:05:11.683Z,95599.81
2022-12-03T10:06:19.070Z,95598.06
2022-12-03T10:07:21.033Z,95594.47
2022-12-03T10:08:28.136Z,95598.53
2022-12-03T10:09:32.475Z,95597.28
2022-12-03T10:10:35.495Z,95600.06
2022-12-03T10:11:37.222Z,95592.94
2022-12-03T10:12:38.795Z,95594.47
2022-12-03T10:13:41.268Z,95587.38
2022-12-03T10:14:43.074Z,95595.75
2022-12-03T10:15:44.625Z,95580.28
2022-12-03T10:16:46.841Z,95591.69
2022-12-03T10:17:50.683Z,95591.16
2022-12-03T10:18:58.628Z,95585.88
2022-12-03T10:20:01.454Z,95586.13
2022-12-03T10:21:03.160Z,95588.09
2022-12-03T10:22:04.731Z,95578.22
2022-12-03T10:23:06.266Z,95587.09
2022-12-03T10:24:31.386Z,95584.59
2022-12-03T10:25:34.768Z,95588.63
2022-12-03T10:26:40.658Z,95576.22
2022-12-03T10:27:42.532Z,95582.31
2022-12-03T10:28:46.934Z,95576.47
2022-12-03T10:29:57.287Z,95576.22
2022-12-03T10:31:00.870Z,95579.25
2022-12-03T10:32:08.578Z,95576.22
2022-12-03T10:33:19.042Z,95586.41
2022-12-03T10:34:25.007Z,95575.47
2022-12-03T10:35:41.423Z,95573.22
2022-12-03T10:36:43.008Z,95576.47
2022-12-03T10:38:01.127Z,95571.69
2022-12-03T10:39:16.212Z,95577.28
2022-12-03T10:40:25.118Z,95580.06
2022-12-03T10:41:28.176Z,95570.66
2022-12-03T10:42:32.817Z,95577.75
2022-12-03T10:43:34.392Z,95577.50
2022-12-03T10:44:36.511Z,95567.09
2022-12-03T10:45:38.032Z,95573.44
2022-12-03T10:46:39.825Z,95572.94
2022-12-03T10:48:03.149Z,95571.19
2022-12-03T10:49:17.150Z,95573.22
2022-12-03T10:50:20.125Z,95573.44
2022-12-03T10:51:21.862Z,95569.13
2022-12-03T10:52:25.959Z,95569.91
2022-12-03T10:53:30.621Z,95569.91
2022-12-03T10:54:35.374Z,95566.59
2022-12-03T10:55:42.000Z,95567.84
2022-12-03T10:56:44.629Z,95558.00
2022-12-03T10:57:47.110Z,95563.56
2022-12-03T10:58:48.675Z,95559.50
2022-12-03T10:59:50.249Z,95557.22
2022-12-03T11:00:54.530Z,95559.50
2022-12-03T11:01:56.191Z,95559.50
2022-12-03T11:02:57.910Z,95559.50
2022-12-03T11:04:04.182Z,95557.22
2022-12-03T11:05:06.176Z,95556.69
2022-12-03T11:06:14.906Z,95555.72
2022-12-03T11:07:19.315Z,95559.50
2022-12-03T11:08:24.266Z,95548.34
2022-12-03T11:09:29.841Z,95555.94
2022-12-03T11:10:31.388Z,95553.41
2022-12-03T11:11:32.945Z,95549.88
2022-12-03T11:12:35.648Z,95554.16
2022-12-03T11:13:37.167Z,95552.88
2022-12-03T11:14:51.230Z,95550.91
2022-12-03T11:15:53.793Z,95556.97
2022-12-03T11:16:55.400Z,95554.41
2022-12-03T11:17:56.993Z,95555.91
2022-12-03T11:19:00.126Z,95548.06
2022-12-03T11:20:01.692Z,95553.63
2022-12-03T11:21:06.305Z,95547.84
2022-12-03T11:22:10.540Z,95557.44
2022-12-03T11:23:12.094Z,95553.34
2022-12-03T11:24:19.833Z,95554.41
2022-12-03T11:25:27.480Z,95546.56
2022-12-03T11:26:29.005Z,95546.81
2022-12-03T11:27:30.674Z,95543.25
2022-12-03T11:28:34.553Z,95547.31
2022-12-03T11:29:59.598Z,95542.75
2022-12-03T11:31:09.857Z,95551.84
2022-12-03T11:32:11.558Z,95553.34
2022-12-03T11:33:24.979Z,95547.09
2022-12-03T11:34:40.521Z,95554.16
2022-12-03T11:36:36.344Z,95546.34
2022-12-03T11:37:42.224Z,95553.59
2022-12-03T11:38:52.255Z,95556.41
2022-12-03T11:40:24.900Z,95548.84
2022-12-03T11:41:32.560Z,95546.28
2022-12-03T11:42:40.952Z,95548.84
2022-12-03T11:43:57.556Z,95542.75
2022-12-03T11:45:11.219Z,95545.06
2022-12-03T11:46:12.807Z,95539.94
2022-12-03T11:47:16.197Z,95540.69
2022-12-03T11:48:18.737Z,95537.69
2022-12-03T11:49:30.075Z,95535.94
2022-12-03T11:50:39.701Z,95540.69
2022-12-03T11:51:44.785Z,95535.41
2022-12-03T11:52:49.961Z,95536.16
2022-12-03T11:53:53.211Z,95539.19
2022-12-03T11:54:59.914Z,95533.63
2022-12-03T11:56:08.562Z,95537.69
2022-12-03T11:57:30.542Z,95530.34
2022-12-03T11:58:33.127Z,95532.59
2022-12-03T11:59:34.658Z,95533.34
2022-12-03T12:00:36.179Z,95533.34
2022-12-03T12:01:42.895Z,95529.78
2022-12-03T12:02:44.633Z,95530.53
2022-12-03T12:03:50.723Z,95528.78
2022-12-03T12:04:52.430Z,95528.78
2022-12-03T12:06:04.044Z,95526.28
2022-12-03T12:07:05.632Z,95535.38
2022-12-03T12:08:19.509Z,95535.19
2022-12-03T12:09:49.649Z,95537.19
2022-12-03T12:10:51.198Z,95532.34
2022-12-03T12:11:52.768Z,95532.09
2022-12-03T12:12:55.212Z,95531.84
2022-12-03T12:13:57.118Z,95533.91
2022-12-03T12:14:59.230Z,95529.06
2022-12-03T12:16:08.517Z,95524.53
2022-12-03T12:17:37.384Z,95524.31
2022-12-03T12:18:45.180Z,95526.28
2022-12-03T12:19:52.652Z,95523.50
2022-12-03T12:20:55.879Z,95526.03
2022-12-03T12:22:26.684Z,95519.97
2022-12-03T12:23:29.203Z,95524.78
2022-12-03T12:24:51.645Z,95525.56
2022-12-03T12:25:54.493Z,95523.03
2022-12-03T12:26:58.163Z,95518.19
2022-12-03T12:27:59.689Z,95519.94
2022-12-03T12:29:01.257Z,95526.03
2022-12-03T12:30:28.217Z,95523.25
2022-12-03T12:31:29.826Z,95523.50
2022-12-03T12:32:34.392Z,95520.72
2022-12-03T12:33:35.945Z,95519.44
2022-12-03T12:34:38.703Z,95519.44
2022-12-03T12:35:41.541Z,95517.66
2022-12-03T12:36:43.061Z,95517.91
2022-12-03T12:37:59.531Z,95514.88
2022-12-03T12:39:01.437Z,95522.00
2022-12-03T12:40:12.571Z,95515.41
2022-12-03T12:41:14.159Z,95515.66
2022-12-03T12:42:35.562Z,95518.47
2022-12-03T12:43:39.510Z,95520.22
2022-12-03T12:44:41.541Z,95520.22
2022-12-03T12:45:43.702Z,95518.94